createdAt,value
2019-06-25T00:00:45.042Z,9.30
2019-06-25T00:03:11.517Z,8.77
2019-06-25T00:05:38.650Z,9.80
2019-06-25T00:08:05.076Z,9.50
2019-06-25T00:10:31.449Z,9.87
2019-06-25T00:12:57.991Z,8.90
2019-06-25T00:15:24.457Z,9.67
2019-06-25T00:17:50.744Z,9.13
2019-06-25T00:20:17.374Z,10.10
2019-06-25T00:22:43.744Z,9.27
2019-06-25T00:25:10.762Z,8.93
2019-06-25T00:27:37.342Z,9.00
2019-06-25T00:30:07.257Z,8.80
2019-06-25T00:32:33.808Z,8.97
2019-06-25T00:35:00.173Z,8.67
2019-06-25T00:37:26.516Z,8.43
2019-06-25T00:39:52.831Z,8.80
2019-06-25T00:42:19.097Z,7.80
2019-06-25T00:44:45.542Z,8.10
2019-06-25T00:47:12.019Z,8.30
2019-06-25T00:49:38.506Z,7.60
2019-06-25T00:52:05.038Z,8.30
2019-06-25T00:54:31.297Z,8.27
2019-06-25T00:56:57.807Z,7.60
2019-06-25T00:59:24.340Z,8.73
2019-06-25T01:01:52.704Z,8.00
2019-06-25T01:04:19.037Z,8.30
2019-06-25T01:06:45.556Z,7.63
2019-06-25T01:09:11.954Z,7.90
2019-06-25T01:11:38.391Z,8.80
2019-06-25T01:14:04.889Z,8.27
2019-06-25T01:16:31.394Z,8.50
2019-06-25T01:18:57.814Z,8.60
2019-06-25T01:21:24.313Z,8.53
2019-06-25T01:23:50.800Z,9.30
2019-06-25T01:26:17.307Z,9.00
2019-06-25T01:28:43.586Z,7.90
2019-06-25T01:31:10.176Z,8.50
2019-06-25T01:33:36.877Z,8.00
2019-06-25T01:36:03.371Z,7.63
2019-06-25T01:38:29.862Z,8.07
2019-06-25T01:40:56.379Z,8.30
2019-06-25T01:43:22.750Z,9.10
2019-06-25T01:45:49.331Z,8.70
2019-06-25T01:48:15.842Z,9.50
2019-06-25T01:50:42.131Z,9.07
2019-06-25T01:53:08.649Z,8.40
2019-06-25T01:55:35.042Z,8.87
2019-06-25T01:58:01.313Z,9.20
2019-06-25T02:00:27.857Z,8.63
2019-06-25T02:02:54.247Z,8.80
2019-06-25T02:05:20.795Z,9.30
2019-06-25T02:07:47.327Z,11.10
2019-06-25T02:10:14.734Z,10.80
2019-06-25T02:12:41.127Z,11.27
2019-06-25T02:15:08.250Z,11.80
2019-06-25T02:17:34.752Z,12.00
2019-06-25T02:20:01.474Z,12.93
2019-06-25T02:22:27.974Z,10.50
2019-06-25T02:24:54.438Z,10.57
2019-06-25T02:27:20.882Z,11.17
2019-06-25T02:29:47.391Z,11.77
2019-06-25T02:32:13.747Z,11.90
2019-06-25T02:34:40.173Z,12.70
2019-06-25T02:37:06.571Z,12.33
2019-06-25T02:39:33.100Z,12.10
2019-06-25T02:41:59.602Z,11.17
2019-06-25T02:44:26.109Z,10.37
2019-06-25T02:46:52.612Z,12.47
2019-06-25T02:49:19.014Z,11.67
2019-06-25T02:51:45.499Z,12.20
2019-06-25T02:54:11.779Z,11.93
2019-06-25T02:56:38.388Z,11.67
2019-06-25T02:59:04.876Z,12.70
2019-06-25T03:01:31.353Z,12.07
2019-06-25T03:03:57.871Z,11.80
2019-06-25T03:06:24.186Z,12.10
2019-06-25T03:08:50.482Z,11.43
2019-06-25T03:11:17.015Z,11.83
2019-06-25T03:13:43.487Z,11.20
2019-06-25T03:16:10.286Z,12.27
2019-06-25T03:18:36.825Z,12.60
2019-06-25T03:21:03.305Z,11.57
2019-06-25T03:23:29.715Z,11.00
2019-06-25T03:25:56.217Z,11.43
2019-06-25T03:28:22.714Z,11.77
2019-06-25T03:30:49.237Z,11.87
2019-06-25T03:33:15.638Z,11.13
2019-06-25T03:35:42.002Z,11.50
2019-06-25T03:38:08.510Z,11.77
2019-06-25T03:40:34.887Z,12.23
2019-06-25T03:43:01.270Z,12.97
2019-06-25T03:45:27.825Z,11.73
2019-06-25T03:47:54.297Z,12.90
2019-06-25T03:50:20.782Z,12.50
2019-06-25T03:52:47.210Z,12.37
2019-06-25T03:55:13.755Z,12.17
2019-06-25T03:57:40.200Z,13.50
2019-06-25T04:00:06.796Z,12.33
2019-06-25T04:02:33.577Z,13.20
2019-06-25T04:05:00.156Z,12.23
2019-06-25T04:07:26.589Z,13.10
2019-06-25T04:09:52.892Z,11.90
2019-06-25T04:12:19.423Z,13.87
2019-06-25T04:14:45.906Z,12.77
2019-06-25T04:17:12.511Z,11.67
2019-06-25T04:19:38.954Z,12.13
2019-06-25T04:22:05.309Z,10.50
2019-06-25T04:24:31.839Z,11.77
2019-06-25T04:26:58.197Z,12.90
2019-06-25T04:29:24.709Z,12.43
2019-06-25T04:31:51.033Z,12.40
2019-06-25T04:34:17.549Z,12.70
2019-06-25T04:36:44.055Z,12.87
2019-06-25T04:39:10.577Z,12.77
2019-06-25T04:41:36.946Z,13.20
2019-06-25T04:44:03.971Z,12.70
2019-06-25T04:46:30.448Z,13.20
2019-06-25T04:48:56.940Z,12.57
2019-06-25T04:51:23.393Z,12.60
2019-06-25T04:53:49.761Z,12.60
2019-06-25T04:56:16.168Z,12.93
2019-06-25T04:58:42.776Z,12.90
2019-06-25T05:01:09.383Z,12.60
2019-06-25T05:03:35.747Z,12.63
2019-06-25T05:06:02.223Z,12.23
2019-06-25T05:08:28.675Z,11.30
2019-06-25T05:10:55.161Z,12.57
2019-06-25T05:13:22.693Z,12.10
2019-06-25T05:15:49.190Z,11.90
2019-06-25T05:18:15.672Z,11.57
2019-06-25T05:20:42.194Z,11.80
2019-06-25T05:23:09.043Z,11.90
2019-06-25T05:25:36.454Z,12.13
2019-06-25T05:28:03.350Z,11.70
2019-06-25T05:30:30.225Z,12.67
2019-06-25T05:33:05.468Z,12.90
2019-06-25T05:35:25.880Z,12.43
2019-06-25T05:37:52.373Z,12.17
2019-06-25T05:40:18.900Z,11.23
2019-06-25T05:42:45.402Z,11.00
2019-06-25T05:45:20.991Z,10.77
2019-06-25T05:47:47.486Z,9.50
2019-06-25T05:50:16.089Z,11.13
2019-06-25T05:52:42.494Z,10.70
2019-06-25T05:55:09.237Z,10.60
2019-06-25T05:57:35.714Z,11.00
2019-06-25T06:00:05.328Z,10.47
2019-06-25T06:02:31.731Z,10.30
2019-06-25T06:04:58.064Z,10.73
2019-06-25T06:07:24.546Z,10.37
2019-06-25T06:09:51.090Z,10.30
2019-06-25T06:12:17.585Z,9.80
2019-06-25T06:14:44.123Z,9.57
2019-06-25T06:17:12.669Z,10.23
2019-06-25T06:19:38.902Z,9.93
2019-06-25T06:22:05.424Z,9.83
2019-06-25T06:24:31.910Z,8.70
2019-06-25T06:26:58.218Z,9.43
2019-06-25T06:29:24.640Z,8.63
2019-06-25T06:31:51.464Z,9.03
2019-06-25T06:34:18.220Z,8.67
2019-06-25T06:36:45.086Z,8.20
2019-06-25T06:39:13.574Z,7.57
2019-06-25T06:41:40.402Z,8.93
2019-06-25T06:44:07.164Z,9.00
2019-06-25T06:46:33.902Z,8.80
2019-06-25T06:49:00.770Z,8.67
2019-06-25T06:51:27.475Z,9.30
2019-06-25T06:53:54.209Z,8.93
2019-06-25T06:56:21.022Z,9.17
2019-06-25T06:58:47.878Z,8.97
2019-06-25T07:01:14.656Z,9.00
2019-06-25T07:03:52.275Z,8.30
2019-06-25T07:06:09.969Z,8.40
2019-06-25T07:08:36.769Z,8.20
2019-06-25T07:11:03.545Z,8.67
2019-06-25T07:13:30.480Z,8.50
2019-06-25T07:15:56.902Z,8.53
2019-06-25T07:18:23.363Z,8.20
2019-06-25T07:20:49.847Z,8.57
2019-06-25T07:23:16.369Z,8.23
2019-06-25T07:25:43.971Z,8.10
2019-06-25T07:28:11.657Z,8.80
2019-06-25T07:30:38.180Z,9.13
2019-06-25T07:33:04.662Z,8.63
2019-06-25T07:35:31.571Z,8.90
2019-06-25T07:37:58.072Z,8.40
2019-06-25T07:40:24.558Z,8.90
2019-06-25T07:42:51.051Z,8.30
2019-06-25T07:45:17.871Z,8.40
2019-06-25T07:47:44.391Z,8.50
2019-06-25T07:50:11.578Z,8.80
2019-06-25T07:52:38.181Z,7.80
2019-06-25T07:55:05.111Z,8.27
2019-06-25T07:57:31.915Z,8.20
2019-06-25T07:59:58.645Z,8.20
2019-06-25T08:02:25.504Z,7.60
2019-06-25T08:04:52.273Z,8.63
2019-06-25T08:07:19.072Z,8.40
2019-06-25T08:09:45.922Z,9.27
2019-06-25T08:12:12.621Z,7.93
2019-06-25T08:14:39.440Z,7.80
2019-06-25T08:17:07.588Z,8.30
2019-06-25T08:19:34.546Z,7.73
2019-06-25T08:22:01.380Z,7.30
2019-06-25T08:24:28.076Z,7.70
2019-06-25T08:26:54.817Z,8.23
2019-06-25T08:29:21.607Z,8.00
2019-06-25T08:31:48.379Z,8.13
2019-06-25T08:34:15.060Z,8.20
2019-06-25T08:36:41.884Z,8.00
2019-06-25T08:39:08.678Z,8.53
2019-06-25T08:41:35.509Z,8.30
2019-06-25T08:44:02.303Z,8.77
2019-06-25T08:46:29.003Z,8.03
2019-06-25T08:48:55.850Z,7.97
2019-06-25T08:51:22.776Z,7.40
2019-06-25T08:53:49.530Z,8.27
2019-06-25T08:56:16.362Z,8.13
2019-06-25T08:58:43.238Z,7.30
2019-06-25T09:01:10.037Z,7.93
2019-06-25T09:03:36.845Z,7.67
2019-06-25T09:06:03.651Z,7.90
2019-06-25T09:08:30.466Z,7.70
2019-06-25T09:10:57.285Z,7.77
2019-06-25T09:13:24.107Z,7.50
2019-06-25T09:15:50.918Z,7.60
2019-06-25T09:18:17.718Z,9.13
2019-06-25T09:20:44.505Z,8.80
2019-06-25T09:23:11.343Z,7.90
2019-06-25T09:25:38.142Z,8.47
2019-06-25T09:28:04.973Z,8.20
2019-06-25T09:30:31.770Z,8.27
2019-06-25T09:32:58.658Z,7.67
2019-06-25T09:35:25.368Z,8.13
2019-06-25T09:37:52.218Z,8.80
2019-06-25T09:40:18.857Z,9.60
2019-06-25T09:42:45.424Z,7.00
2019-06-25T09:45:11.966Z,7.90
2019-06-25T09:47:40.328Z,8.10
2019-06-25T09:50:07.842Z,8.60
2019-06-25T09:52:34.511Z,7.70
2019-06-25T09:55:01.288Z,7.90
2019-06-25T09:57:28.064Z,8.13
2019-06-25T09:59:54.916Z,7.87
2019-06-25T10:02:21.844Z,7.70
2019-06-25T10:04:48.668Z,8.73
2019-06-25T10:07:15.841Z,7.50
2019-06-25T10:09:42.709Z,7.80
2019-06-25T10:12:10.250Z,7.60
2019-06-25T10:14:36.852Z,7.60
2019-06-25T10:17:03.602Z,7.67
2019-06-25T10:19:30.280Z,8.20
2019-06-25T10:21:57.046Z,7.57
2019-06-25T10:24:23.774Z,7.50
2019-06-25T10:26:50.559Z,7.30
2019-06-25T10:29:17.274Z,7.97
2019-06-25T10:31:44.039Z,8.13
2019-06-25T10:34:10.661Z,7.70
2019-06-25T10:36:37.058Z,7.80
2019-06-25T10:39:05.794Z,7.83
2019-06-25T10:41:32.299Z,7.47
2019-06-25T10:43:58.814Z,7.80
2019-06-25T10:46:25.309Z,7.57
2019-06-25T10:48:51.669Z,7.40
2019-06-25T10:51:18.392Z,7.70
2019-06-25T10:53:44.791Z,7.43
2019-06-25T10:56:11.578Z,8.40
2019-06-25T10:58:38.074Z,8.33
2019-06-25T11:01:04.562Z,7.37
2019-06-25T11:03:31.011Z,7.93
2019-06-25T11:06:05.432Z,7.70
2019-06-25T11:08:25.888Z,8.17
2019-06-25T11:10:52.586Z,8.37
2019-06-25T11:13:18.871Z,8.53
2019-06-25T11:15:45.372Z,7.77
2019-06-25T11:18:11.859Z,7.20
2019-06-25T11:20:38.340Z,7.87
2019-06-25T11:23:05.139Z,7.80
2019-06-25T11:25:31.555Z,7.20
2019-06-25T11:27:58.049Z,8.53
2019-06-25T11:30:24.598Z,7.77
2019-06-25T11:32:50.981Z,7.70
2019-06-25T11:35:17.761Z,7.53
2019-06-25T11:37:44.618Z,8.20
2019-06-25T11:40:14.066Z,7.07
2019-06-25T11:42:40.646Z,7.50
2019-06-25T11:45:07.451Z,7.30
2019-06-25T11:47:33.831Z,7.70
2019-06-25T11:50:00.522Z,8.10
2019-06-25T11:52:26.840Z,7.60
2019-06-25T11:54:53.136Z,8.00
2019-06-25T11:57:19.548Z,7.47
2019-06-25T11:59:45.856Z,7.10
2019-06-25T12:02:12.338Z,6.87
2019-06-25T12:04:38.819Z,7.70
2019-06-25T12:07:05.235Z,6.83
2019-06-25T12:09:31.651Z,7.73
2019-06-25T12:11:58.182Z,8.33
2019-06-25T12:14:24.560Z,7.93
2019-06-25T12:16:51.061Z,7.83
2019-06-25T12:19:17.475Z,8.57
2019-06-25T12:21:44.863Z,8.13
2019-06-25T12:24:11.357Z,7.60
2019-06-25T12:26:37.855Z,7.27
2019-06-25T12:29:04.501Z,7.80
2019-06-25T12:31:30.780Z,10.80
2019-06-25T12:33:57.086Z,8.53
2019-06-25T12:36:23.412Z,7.50
2019-06-25T12:38:49.930Z,7.77
2019-06-25T12:41:16.343Z,7.47
2019-06-25T12:43:42.754Z,7.70
2019-06-25T12:46:09.186Z,7.30
2019-06-25T12:48:35.776Z,7.57
2019-06-25T12:51:02.374Z,7.80
2019-06-25T12:53:28.810Z,7.70
2019-06-25T12:55:55.315Z,7.10
2019-06-25T12:58:21.640Z,7.80
2019-06-25T13:00:48.062Z,7.70
2019-06-25T13:03:14.588Z,7.33
2019-06-25T13:05:40.996Z,7.97
2019-06-25T13:08:07.473Z,6.93
2019-06-25T13:10:43.673Z,7.60
2019-06-25T13:13:02.302Z,6.70
2019-06-25T13:15:28.827Z,7.33
2019-06-25T13:17:55.363Z,7.37
2019-06-25T13:20:21.853Z,7.30
2019-06-25T13:22:48.379Z,7.00
2019-06-25T13:25:14.907Z,7.43
2019-06-25T13:27:41.279Z,7.80
2019-06-25T13:30:09.731Z,7.30
2019-06-25T13:32:36.215Z,6.90
2019-06-25T13:35:04.909Z,7.47
2019-06-25T13:37:41.786Z,7.03
2019-06-25T13:39:59.829Z,8.03
2019-06-25T13:42:26.245Z,7.30
2019-06-25T13:44:52.654Z,7.73
2019-06-25T13:47:18.933Z,7.03
2019-06-25T13:49:45.239Z,7.70
2019-06-25T13:52:11.643Z,7.00
2019-06-25T13:54:39.915Z,6.70
2019-06-25T13:57:06.317Z,7.20
2019-06-25T13:59:32.729Z,7.57
2019-06-25T14:01:59.120Z,7.20
2019-06-25T14:04:25.559Z,6.63
2019-06-25T14:06:52.297Z,6.53
2019-06-25T14:09:19.105Z,6.93
2019-06-25T14:11:45.721Z,6.83
2019-06-25T14:14:12.123Z,6.30
2019-06-25T14:16:38.659Z,6.20
2019-06-25T14:19:05.136Z,6.27
2019-06-25T14:21:34.140Z,5.67
2019-06-25T14:24:00.058Z,6.60
2019-06-25T14:26:26.529Z,6.60
2019-06-25T14:28:53.055Z,6.70
2019-06-25T14:31:19.582Z,6.40
2019-06-25T14:33:46.363Z,6.47
2019-06-25T14:36:12.886Z,7.13
2019-06-25T14:38:39.414Z,6.00
2019-06-25T14:41:05.937Z,6.00
2019-06-25T14:43:32.722Z,6.30
2019-06-25T14:45:59.263Z,6.50
2019-06-25T14:48:25.619Z,5.83
2019-06-25T14:50:51.927Z,6.17
2019-06-25T14:53:18.473Z,6.90
2019-06-25T14:55:44.962Z,5.87
2019-06-25T14:58:11.377Z,5.23
2019-06-25T15:00:37.883Z,5.27
2019-06-25T15:03:04.496Z,6.37
2019-06-25T15:05:30.913Z,5.87
2019-06-25T15:07:57.293Z,6.13
2019-06-25T15:10:24.129Z,6.30
2019-06-25T15:12:50.558Z,6.30
2019-06-25T15:15:31.805Z,5.50
2019-06-25T15:17:46.239Z,6.40
2019-06-25T15:20:13.482Z,5.47
2019-06-25T15:22:40.000Z,5.77
2019-06-25T15:25:06.894Z,6.17
2019-06-25T15:27:33.774Z,5.50
2019-06-25T15:30:02.559Z,5.93
2019-06-25T15:32:30.533Z,5.33
2019-06-25T15:34:56.736Z,5.40
2019-06-25T15:37:23.156Z,6.20
2019-06-25T15:39:49.623Z,5.70
2019-06-25T15:42:16.179Z,5.50
2019-06-25T15:44:42.665Z,5.37
2019-06-25T15:47:09.166Z,4.70
2019-06-25T15:49:35.481Z,4.87
2019-06-25T15:52:01.813Z,5.10
2019-06-25T15:54:28.096Z,5.30
2019-06-25T15:56:54.423Z,5.50
2019-06-25T15:59:20.745Z,5.53
2019-06-25T16:01:47.064Z,5.57
2019-06-25T16:04:13.818Z,4.77
2019-06-25T16:06:40.784Z,4.87
2019-06-25T16:09:07.932Z,5.57
2019-06-25T16:11:34.445Z,5.60
2019-06-25T16:14:00.966Z,5.80
2019-06-25T16:16:27.890Z,5.30
2019-06-25T16:18:54.849Z,5.47
2019-06-25T16:21:21.328Z,5.20
2019-06-25T16:23:48.548Z,5.77
2019-06-25T16:26:15.535Z,5.13
2019-06-25T16:28:41.995Z,5.40
2019-06-25T16:31:08.391Z,4.30
2019-06-25T16:33:34.914Z,5.30
2019-06-25T16:36:02.276Z,4.70
2019-06-25T16:38:36.101Z,4.40
2019-06-25T16:41:02.728Z,4.47
2019-06-25T16:43:29.318Z,5.17
2019-06-25T16:46:00.931Z,4.90
2019-06-25T16:48:24.478Z,4.63
2019-06-25T16:50:50.998Z,4.80
2019-06-25T16:53:17.381Z,4.70
2019-06-25T16:55:43.783Z,4.70
2019-06-25T16:58:10.548Z,3.90
2019-06-25T17:00:37.074Z,4.70
2019-06-25T17:03:04.429Z,4.60
2019-06-25T17:05:35.671Z,4.97
2019-06-25T17:08:02.083Z,4.90
2019-06-25T17:10:30.707Z,4.57
2019-06-25T17:12:57.193Z,4.40
2019-06-25T17:15:24.429Z,4.77
2019-06-25T17:17:51.359Z,4.43
2019-06-25T17:20:18.863Z,4.60
2019-06-25T17:22:45.581Z,4.17
2019-06-25T17:25:14.173Z,4.57
2019-06-25T17:27:49.854Z,3.63
2019-06-25T17:30:11.205Z,4.13
2019-06-25T17:32:39.385Z,5.70
2019-06-25T17:35:10.799Z,4.30
2019-06-25T17:37:38.062Z,5.50
2019-06-25T17:40:07.005Z,5.07
2019-06-25T17:42:35.691Z,3.97
2019-06-25T17:45:04.669Z,4.10
2019-06-25T17:47:31.824Z,4.43
2019-06-25T17:49:59.538Z,4.70
2019-06-25T17:52:26.891Z,4.27
2019-06-25T17:54:55.050Z,4.80
2019-06-25T17:57:22.431Z,4.73
2019-06-25T17:59:49.493Z,4.87
2019-06-25T18:02:16.310Z,4.60
2019-06-25T18:04:44.410Z,5.33
2019-06-25T18:07:12.939Z,4.40
2019-06-25T18:09:43.497Z,4.60
2019-06-25T18:12:12.640Z,5.67
2019-06-25T18:14:42.159Z,5.30
2019-06-25T18:17:08.956Z,5.13
2019-06-25T18:19:35.460Z,5.43
2019-06-25T18:22:03.734Z,5.73
2019-06-25T18:24:31.902Z,5.57
2019-06-25T18:27:02.901Z,6.30
2019-06-25T18:29:31.280Z,5.80
2019-06-25T18:32:08.228Z,5.40
2019-06-25T18:34:27.197Z,5.50
2019-06-25T18:36:54.777Z,6.77
2019-06-25T18:39:22.772Z,7.40
2019-06-25T18:41:49.769Z,7.33
2019-06-25T18:44:17.774Z,7.40
2019-06-25T18:46:45.713Z,6.90
2019-06-25T18:49:13.509Z,5.93
2019-06-25T18:51:43.251Z,6.43
2019-06-25T18:54:11.182Z,6.40
2019-06-25T18:56:43.244Z,6.20
2019-06-25T18:59:10.964Z,6.67
2019-06-25T19:01:37.543Z,7.40
2019-06-25T19:04:04.090Z,7.00
2019-06-25T19:06:30.811Z,6.47
2019-06-25T19:08:57.313Z,7.00
2019-06-25T19:11:23.876Z,6.23
2019-06-25T19:13:50.434Z,7.40
2019-06-25T19:16:16.846Z,7.20
2019-06-25T19:18:43.398Z,6.50
2019-06-25T19:21:09.916Z,7.50
2019-06-25T19:23:36.589Z,7.13
2019-06-25T19:26:06.463Z,5.93
2019-06-25T19:28:31.427Z,7.00
2019-06-25T19:30:57.914Z,6.70
2019-06-25T19:33:24.454Z,7.00
2019-06-25T19:36:04.253Z,7.30
2019-06-25T19:38:19.474Z,7.67
2019-06-25T19:40:55.448Z,6.80
2019-06-25T19:43:14.188Z,7.77
2019-06-25T19:45:40.720Z,7.03
2019-06-25T19:48:07.332Z,7.43
2019-06-25T19:50:33.981Z,7.13
2019-06-25T19:53:00.496Z,7.03
2019-06-25T19:55:27.022Z,8.03
2019-06-25T19:57:53.607Z,7.67
2019-06-25T20:00:20.323Z,8.43
2019-06-25T20:02:46.613Z,8.10
2019-06-25T20:05:13.174Z,8.00
2019-06-25T20:07:39.771Z,8.17
2019-06-25T20:10:06.873Z,8.53
2019-06-25T20:12:33.542Z,7.40
2019-06-25T20:14:59.857Z,7.87
2019-06-25T20:17:26.347Z,8.27
2019-06-25T20:19:52.811Z,7.23
2019-06-25T20:22:19.257Z,7.90
2019-06-25T20:24:45.821Z,7.97
2019-06-25T20:27:12.294Z,8.13
2019-06-25T20:29:38.683Z,8.27
2019-06-25T20:32:05.200Z,8.00
2019-06-25T20:34:31.656Z,8.50
2019-06-25T20:36:58.077Z,7.87
2019-06-25T20:39:24.727Z,7.90
2019-06-25T20:41:51.498Z,8.10
2019-06-25T20:44:18.225Z,8.30
2019-06-25T20:46:44.992Z,8.23
2019-06-25T20:49:11.672Z,8.23
2019-06-25T20:51:38.572Z,8.67
2019-06-25T20:54:05.469Z,8.37
2019-06-25T20:56:32.219Z,8.43
2019-06-25T20:58:59.022Z,8.30
2019-06-25T21:01:25.786Z,8.70
2019-06-25T21:03:52.563Z,8.70
2019-06-25T21:06:19.303Z,9.10
2019-06-25T21:08:46.134Z,10.23
2019-06-25T21:11:25.549Z,10.30
2019-06-25T21:13:41.507Z,10.33
2019-06-25T21:16:08.421Z,10.20
2019-06-25T21:18:35.065Z,10.90
2019-06-25T21:21:01.834Z,10.00
2019-06-25T21:23:28.391Z,10.70
2019-06-25T21:25:54.693Z,11.30
2019-06-25T21:28:21.199Z,9.80
2019-06-25T21:30:48.016Z,9.40
2019-06-25T21:33:14.981Z,9.57
2019-06-25T21:35:44.445Z,10.10
2019-06-25T21:38:10.490Z,10.00
2019-06-25T21:40:37.183Z,10.63
2019-06-25T21:43:03.981Z,10.23
2019-06-25T21:45:30.415Z,11.17
2019-06-25T21:47:57.212Z,9.40
2019-06-25T21:50:23.768Z,10.17
2019-06-25T21:52:50.484Z,9.60
2019-06-25T21:55:17.819Z,9.00
2019-06-25T21:57:44.679Z,9.67
2019-06-25T22:00:13.471Z,10.30
2019-06-25T22:02:42.146Z,9.10
2019-06-25T22:05:09.116Z,10.37
2019-06-25T22:07:35.487Z,9.17
2019-06-25T22:10:03.729Z,9.50
2019-06-25T22:12:30.110Z,9.47
2019-06-25T22:14:56.639Z,8.90
2019-06-25T22:17:23.276Z,8.07
2019-06-25T22:19:49.933Z,9.90
2019-06-25T22:22:20.226Z,8.87
2019-06-25T22:24:44.850Z,9.07
2019-06-25T22:27:11.628Z,8.80
2019-06-25T22:29:38.411Z,8.83
2019-06-25T22:32:05.243Z,8.67
2019-06-25T22:34:32.025Z,10.37
2019-06-25T22:36:58.847Z,9.50
2019-06-25T22:39:25.629Z,9.63
2019-06-25T22:41:52.432Z,11.00
2019-06-25T22:44:19.246Z,12.57
2019-06-25T22:46:45.763Z,13.40
2019-06-25T22:49:12.345Z,11.60
2019-06-25T22:51:38.866Z,12.83
2019-06-25T22:54:05.576Z,13.23
2019-06-25T22:56:32.095Z,13.33
2019-06-25T22:58:58.989Z,13.10
2019-06-25T23:01:25.762Z,14.30
2019-06-25T23:03:52.610Z,13.67
2019-06-25T23:06:19.390Z,12.73
2019-06-25T23:08:46.153Z,13.10
2019-06-25T23:11:12.648Z,12.93
2019-06-25T23:13:39.146Z,12.37
2019-06-25T23:16:05.653Z,11.40
2019-06-25T23:18:32.308Z,12.00
2019-06-25T23:20:58.926Z,12.20
2019-06-25T23:23:25.357Z,12.10
2019-06-25T23:25:51.860Z,11.73
2019-06-25T23:28:18.387Z,11.17
2019-06-25T23:30:45.159Z,12.03
2019-06-25T23:33:12.061Z,11.30
2019-06-25T23:35:39.587Z,11.37
2019-06-25T23:38:06.372Z,13.27
2019-06-25T23:40:33.142Z,14.70
2019-06-25T23:43:09.601Z,13.50
2019-06-25T23:45:28.454Z,14.40
2019-06-25T23:47:55.137Z,13.63
2019-06-25T23:50:21.974Z,13.43
2019-06-25T23:52:48.772Z,12.83
2019-06-25T23:55:15.617Z,13.80
2019-06-25T23:57:42.380Z,11.90
